sensor_id;sensor_type;location;lat;lon;timestamp;P1;durP1;ratioP1;P2;durP2;ratioP2
60306;SDS011;46155;52.364;6.580;2023-06-04T03:01:07;14.93;;;8.40;;
60306;SDS011;46155;52.364;6.580;2023-06-04T03:03:32;10.27;;;9.33;;
60306;SDS011;46155;52.364;6.580;2023-06-04T03:05:58;8.83;;;8.03;;
60306;SDS011;46155;52.364;6.580;2023-06-04T03:08:24;9.73;;;8.73;;
60306;SDS011;46155;52.364;6.580;2023-06-04T03:10:50;11.40;;;10.40;;
60306;SDS011;46155;52.364;6.580;2023-06-04T03:13:15;17.47;;;11.77;;
60306;SDS011;46155;52.364;6.580;2023-06-04T03:15:41;9.97;;;9.17;;
60306;SDS011;46155;52.364;6.580;2023-06-04T03:18:06;10.63;;;9.73;;
60306;SDS011;46155;52.364;6.580;2023-06-04T03:20:31;10.40;;;9.47;;
60306;SDS011;46155;52.364;6.580;2023-06-04T03:23:03;14.70;;;9.50;;
60306;SDS011;46155;52.364;6.580;2023-06-04T03:25:28;11.87;;;10.33;;
60306;SDS011;46155;52.364;6.580;2023-06-04T03:27:53;11.33;;;9.30;;
60306;SDS011;46155;52.364;6.580;2023-06-04T03:30:19;9.10;;;8.20;;
60306;SDS011;46155;52.364;6.580;2023-06-04T03:32:44;11.80;;;10.03;;
60306;SDS011;46155;52.364;6.580;2023-06-04T03:35:10;10.40;;;9.60;;
60306;SDS011;46155;52.364;6.580;2023-06-04T03:37:35;10.03;;;9.13;;
60306;SDS011;46155;52.364;6.580;2023-06-04T03:40:01;9.83;;;9.03;;
60306;SDS011;46155;52.364;6.580;2023-06-04T03:42:31;11.70;;;9.70;;
60306;SDS011;46155;52.364;6.580;2023-06-04T03:44:56;16.97;;;9.80;;
60306;SDS011;46155;52.364;6.580;2023-06-04T03:47:23;13.83;;;11.10;;
60306;SDS011;46155;52.364;6.580;2023-06-04T03:49:48;11.43;;;10.37;;
60306;SDS011;46155;52.364;6.580;2023-06-04T03:52:13;16.67;;;10.60;;
60306;SDS011;46155;52.364;6.580;2023-06-04T03:54:38;12.77;;;9.70;;
60306;SDS011;46155;52.364;6.580;2023-06-04T03:57:04;11.33;;;10.17;;
60306;SDS011;46155;52.364;6.580;2023-06-04T03:59:29;16.00;;;10.37;;
60306;SDS011;46155;52.364;6.580;2023-06-04T04:01:55;11.07;;;10.17;;
60306;SDS011;46155;52.364;6.580;2023-06-04T04:04:21;11.10;;;10.00;;
60306;SDS011;46155;52.364;6.580;2023-06-04T04:06:46;13.60;;;12.30;;
60306;SDS011;46155;52.364;6.580;2023-06-04T04:09:11;15.03;;;10.43;;
60306;SDS011;46155;52.364;6.580;2023-06-04T04:11:37;16.67;;;11.07;;
60306;SDS011;46155;52.364;6.580;2023-06-04T04:14:02;14.30;;;9.77;;
60306;SDS011;46155;52.364;6.580;2023-06-04T04:16:27;12.77;;;9.57;;
60306;SDS011;46155;52.364;6.580;2023-06-04T04:18:53;13.37;;;10.70;;
60306;SDS011;46155;52.364;6.580;2023-06-04T04:21:18;13.10;;;10.40;;
60306;SDS011;46155;52.364;6.580;2023-06-04T04:23:44;15.73;;;11.50;;
60306;SDS011;46155;52.364;6.580;2023-06-04T04:26:13;16.57;;;10.87;;
60306;SDS011;46155;52.364;6.580;2023-06-04T04:28:41;12.33;;;11.40;;
60306;SDS011;46155;52.364;6.580;2023-06-04T04:31:07;13.83;;;12.43;;
60306;SDS011;46155;52.364;6.580;2023-06-04T04:33:33;12.77;;;11.63;;
60306;SDS011;46155;52.364;6.580;2023-06-04T04:36:04;13.47;;;12.23;;
60306;SDS011;46155;52.364;6.580;2023-06-04T04:38:37;21.30;;;13.37;;
60306;SDS011;46155;52.364;6.580;2023-06-04T04:41:03;13.87;;;12.63;;
60306;SDS011;46155;52.364;6.580;2023-06-04T04:43:29;13.63;;;12.33;;
60306;SDS011;46155;52.364;6.580;2023-06-04T04:45:58;9.67;;;8.70;;
60306;SDS011;46155;52.364;6.580;2023-06-04T04:48:23;11.27;;;9.93;;
60306;SDS011;46155;52.364;6.580;2023-06-04T04:50:50;13.63;;;10.27;;
60306;SDS011;46155;52.364;6.580;2023-06-04T04:53:15;23.53;;;11.10;;
60306;SDS011;46155;52.364;6.580;2023-06-04T04:55:40;12.53;;;10.33;;
60306;SDS011;46155;52.364;6.580;2023-06-04T04:58:06;17.23;;;11.50;;
60306;SDS011;46155;52.364;6.580;2023-06-04T05:00:32;14.83;;;10.10;;
60306;SDS011;46155;52.364;6.580;2023-06-04T05:02:57;16.07;;;11.57;;
60306;SDS011;46155;52.364;6.580;2023-06-04T05:05:22;11.50;;;10.50;;
60306;SDS011;46155;52.364;6.580;2023-06-04T05:07:48;15.43;;;11.27;;
60306;SDS011;46155;52.364;6.580;2023-06-04T05:10:13;11.80;;;10.77;;
60306;SDS011;46155;52.364;6.580;2023-06-04T05:12:38;10.80;;;9.90;;
60306;SDS011;46155;52.364;6.580;2023-06-04T05:15:04;11.47;;;9.40;;
60306;SDS011;46155;52.364;6.580;2023-06-04T05:17:30;10.30;;;9.50;;
60306;SDS011;46155;52.364;6.580;2023-06-04T05:19:56;11.80;;;9.10;;
60306;SDS011;46155;52.364;6.580;2023-06-04T05:22:36;13.70;;;9.17;;
60306;SDS011;46155;52.364;6.580;2023-06-04T05:25:02;15.30;;;10.20;;
60306;SDS011;46155;52.364;6.580;2023-06-04T05:27:28;9.87;;;8.87;;
60306;SDS011;46155;52.364;6.580;2023-06-04T05:29:53;11.50;;;8.33;;
60306;SDS011;46155;52.364;6.580;2023-06-04T05:32:19;8.40;;;7.70;;
60306;SDS011;46155;52.364;6.580;2023-06-04T05:34:44;10.63;;;8.53;;
60306;SDS011;46155;52.364;6.580;2023-06-04T05:37:09;9.57;;;8.20;;
60306;SDS011;46155;52.364;6.580;2023-06-04T05:39:34;9.03;;;8.17;;
60306;SDS011;46155;52.364;6.580;2023-06-04T05:42:00;10.80;;;8.33;;
60306;SDS011;46155;52.364;6.580;2023-06-04T05:44:26;9.30;;;8.50;;
60306;SDS011;46155;52.364;6.580;2023-06-04T05:46:52;8.07;;;7.30;;
60306;SDS011;46155;52.364;6.580;2023-06-04T05:49:17;12.63;;;8.23;;
60306;SDS011;46155;52.364;6.580;2023-06-04T05:51:42;8.20;;;7.40;;
60306;SDS011;46155;52.364;6.580;2023-06-04T05:54:08;10.40;;;7.10;;
60306;SDS011;46155;52.364;6.580;2023-06-04T05:56:33;8.30;;;7.50;;
60306;SDS011;46155;52.364;6.580;2023-06-04T05:58:58;7.77;;;7.03;;
60306;SDS011;46155;52.364;6.580;2023-06-04T06:01:23;14.07;;;7.07;;
60306;SDS011;46155;52.364;6.580;2023-06-04T06:03:49;8.17;;;7.03;;
60306;SDS011;46155;52.364;6.580;2023-06-04T06:06:14;16.23;;;7.03;;
60306;SDS011;46155;52.364;6.580;2023-06-04T06:08:40;12.17;;;7.67;;
60306;SDS011;46155;52.364;6.580;2023-06-04T06:11:05;7.73;;;7.00;;
60306;SDS011;46155;52.364;6.580;2023-06-04T06:13:32;12.83;;;7.40;;
60306;SDS011;46155;52.364;6.580;2023-06-04T06:15:57;7.30;;;6.70;;
60306;SDS011;46155;52.364;6.580;2023-06-04T06:18:22;9.60;;;7.20;;
60306;SDS011;46155;52.364;6.580;2023-06-04T06:20:48;7.87;;;7.00;;
60306;SDS011;46155;52.364;6.580;2023-06-04T06:23:13;9.50;;;6.93;;
60306;SDS011;46155;52.364;6.580;2023-06-04T06:25:39;9.63;;;6.70;;
60306;SDS011;46155;52.364;6.580;2023-06-04T06:28:10;9.47;;;6.43;;
60306;SDS011;46155;52.364;6.580;2023-06-04T06:30:35;13.23;;;7.17;;
60306;SDS011;46155;52.364;6.580;2023-06-04T06:33:01;8.97;;;7.00;;
60306;SDS011;46155;52.364;6.580;2023-06-04T06:35:26;6.97;;;6.27;;
60306;SDS011;46155;52.364;6.580;2023-06-04T06:37:52;8.20;;;6.67;;
60306;SDS011;46155;52.364;6.580;2023-06-04T06:40:17;7.23;;;6.30;;
60306;SDS011;46155;52.364;6.580;2023-06-04T06:42:47;10.50;;;6.83;;
60306;SDS011;46155;52.364;6.580;2023-06-04T06:45:14;7.83;;;6.40;;
60306;SDS011;46155;52.364;6.580;2023-06-04T06:47:40;9.73;;;6.47;;
60306;SDS011;46155;52.364;6.580;2023-06-04T06:50:05;6.77;;;6.23;;
60306;SDS011;46155;52.364;6.580;2023-06-04T06:52:31;11.50;;;6.00;;
60306;SDS011;46155;52.364;6.580;2023-06-04T06:54:56;7.53;;;6.77;;
60306;SDS011;46155;52.364;6.580;2023-06-04T06:57:22;7.03;;;5.87;;
60306;SDS011;46155;52.364;6.580;2023-06-04T06:59:47;10.17;;;6.30;;
60306;SDS011;46155;52.364;6.580;2023-06-04T07:02:13;7.73;;;6.17;;
60306;SDS011;46155;52.364;6.580;2023-06-04T07:04:38;6.97;;;6.40;;
60306;SDS011;46155;52.364;6.580;2023-06-04T07:07:03;7.03;;;6.40;;
60306;SDS011;46155;52.364;6.580;2023-06-04T07:09:29;7.43;;;6.33;;
60306;SDS011;46155;52.364;6.580;2023-06-04T07:11:54;6.70;;;5.93;;
60306;SDS011;46155;52.364;6.580;2023-06-04T07:14:20;6.73;;;6.13;;
60306;SDS011;46155;52.364;6.580;2023-06-04T07:16:45;7.53;;;6.63;;
60306;SDS011;46155;52.364;6.580;2023-06-04T07:19:10;6.57;;;6.00;;
60306;SDS011;46155;52.364;6.580;2023-06-04T07:21:36;6.97;;;6.20;;
60306;SDS011;46155;52.364;6.580;2023-06-04T07:24:01;11.73;;;6.60;;
60306;SDS011;46155;52.364;6.580;2023-06-04T07:26:26;7.03;;;6.13;;
60306;SDS011;46155;52.364;6.580;2023-06-04T07:28:55;6.37;;;5.87;;
60306;SDS011;46155;52.364;6.580;2023-06-04T07:31:21;7.87;;;5.93;;
60306;SDS011;46155;52.364;6.580;2023-06-04T07:33:47;6.30;;;5.80;;
60306;SDS011;46155;52.364;6.580;2023-06-04T07:36:12;6.07;;;5.57;;
60306;SDS011;46155;52.364;6.580;2023-06-04T07:38:39;7.30;;;6.50;;
60306;SDS011;46155;52.364;6.580;2023-06-04T07:41:05;6.53;;;6.13;;
60306;SDS011;46155;52.364;6.580;2023-06-04T07:43:30;7.20;;;6.43;;
60306;SDS011;46155;52.364;6.580;2023-06-04T07:45:55;8.30;;;6.00;;
60306;SDS011;46155;52.364;6.580;2023-06-04T07:48:21;8.00;;;6.43;;
60306;SDS011;46155;52.364;6.580;2023-06-04T07:50:46;7.63;;;5.73;;
60306;SDS011;46155;52.364;6.580;2023-06-04T07:53:12;7.07;;;5.40;;
60306;SDS011;46155;52.364;6.580;2023-06-04T07:55:37;6.80;;;6.03;;
60306;SDS011;46155;52.364;6.580;2023-06-04T07:58:02;6.30;;;5.80;;
60306;SDS011;46155;52.364;6.580;2023-06-04T08:00:28;6.80;;;6.07;;
60306;SDS011;46155;52.364;6.580;2023-06-04T08:02:53;6.30;;;5.70;;
60306;SDS011;46155;52.364;6.580;2023-06-04T08:05:18;7.83;;;5.70;;
60306;SDS011;46155;52.364;6.580;2023-06-04T08:07:44;7.70;;;5.80;;
60306;SDS011;46155;52.364;6.580;2023-06-04T08:10:09;5.97;;;5.57;;
60306;SDS011;46155;52.364;6.580;2023-06-04T08:12:35;9.87;;;5.47;;
60306;SDS011;46155;52.364;6.580;2023-06-04T08:15:00;7.20;;;6.13;;
60306;SDS011;46155;52.364;6.580;2023-06-04T08:17:26;6.27;;;5.70;;
60306;SDS011;46155;52.364;6.580;2023-06-04T08:19:51;6.87;;;5.60;;
60306;SDS011;46155;52.364;6.580;2023-06-04T08:22:16;6.23;;;5.83;;
60306;SDS011;46155;52.364;6.580;2023-06-04T08:24:42;5.83;;;5.10;;
60306;SDS011;46155;52.364;6.580;2023-06-04T08:27:07;5.50;;;5.20;;
60306;SDS011;46155;52.364;6.580;2023-06-04T08:29:36;6.03;;;5.53;;
60306;SDS011;46155;52.364;6.580;2023-06-04T08:32:02;6.63;;;5.40;;
60306;SDS011;46155;52.364;6.580;2023-06-04T08:34:28;5.60;;;5.10;;
60306;SDS011;46155;52.364;6.580;2023-06-04T08:36:54;5.40;;;5.10;;
60306;SDS011;46155;52.364;6.580;2023-06-04T08:39:19;7.47;;;5.53;;
60306;SDS011;46155;52.364;6.580;2023-06-04T08:41:52;5.70;;;5.30;;
60306;SDS011;46155;52.364;6.580;2023-06-04T08:44:19;5.50;;;5.00;;
60306;SDS011;46155;52.364;6.580;2023-06-04T08:46:45;5.90;;;5.33;;
60306;SDS011;46155;52.364;6.580;2023-06-04T08:49:15;5.60;;;5.23;;
60306;SDS011;46155;52.364;6.580;2023-06-04T08:51:43;8.83;;;5.50;;
60306;SDS011;46155;52.364;6.580;2023-06-04T08:54:09;5.83;;;5.33;;
60306;SDS011;46155;52.364;6.580;2023-06-04T08:56:35;6.53;;;6.03;;
60306;SDS011;46155;52.364;6.580;2023-06-04T08:59:05;7.00;;;5.97;;
60306;SDS011;46155;52.364;6.580;2023-06-04T09:01:32;5.67;;;5.27;;
60306;SDS011;46155;52.364;6.580;2023-06-04T09:04:03;5.37;;;4.90;;
60306;SDS011;46155;52.364;6.580;2023-06-04T09:06:29;5.93;;;5.17;;
60306;SDS011;46155;52.364;6.580;2023-06-04T09:08:57;6.03;;;5.17;;
60306;SDS011;46155;52.364;6.580;2023-06-04T09:11:29;6.17;;;5.80;;
60306;SDS011;46155;52.364;6.580;2023-06-04T09:14:00;6.07;;;5.60;;
60306;SDS011;46155;52.364;6.580;2023-06-04T09:16:29;5.83;;;5.37;;
60306;SDS011;46155;52.364;6.580;2023-06-04T09:19:01;6.17;;;5.23;;
60306;SDS011;46155;52.364;6.580;2023-06-04T09:21:27;6.63;;;6.03;;
60306;SDS011;46155;52.364;6.580;2023-06-04T09:23:52;5.80;;;5.40;;
60306;SDS011;46155;52.364;6.580;2023-06-04T09:26:18;6.43;;;5.70;;
60306;SDS011;46155;52.364;6.580;2023-06-04T09:28:44;5.90;;;5.40;;
60306;SDS011;46155;52.364;6.580;2023-06-04T09:31:13;6.33;;;5.73;;
60306;SDS011;46155;52.364;6.580;2023-06-04T09:33:43;5.73;;;5.30;;
60306;SDS011;46155;52.364;6.580;2023-06-04T09:36:09;11.60;;;5.80;;
60306;SDS011;46155;52.364;6.580;2023-06-04T09:38:35;5.83;;;5.30;;
60306;SDS011;46155;52.364;6.580;2023-06-04T09:41:01;6.10;;;5.50;;
60306;SDS011;46155;52.364;6.580;2023-06-04T09:43:29;5.87;;;5.37;;
60306;SDS011;46155;52.364;6.580;2023-06-04T09:45:55;6.30;;;5.70;;
60306;SDS011;46155;52.364;6.580;2023-06-04T09:48:21;5.57;;;5.10;;
60306;SDS011;46155;52.364;6.580;2023-06-04T09:50:47;5.90;;;5.50;;
60306;SDS011;46155;52.364;6.580;2023-06-04T09:53:17;6.00;;;5.50;;
60306;SDS011;46155;52.364;6.580;2023-06-04T09:55:55;5.70;;;5.40;;
60306;SDS011;46155;52.364;6.580;2023-06-04T09:58:21;6.20;;;5.87;;
60306;SDS011;46155;52.364;6.580;2023-06-04T10:00:50;6.00;;;5.60;;
60306;SDS011;46155;52.364;6.580;2023-06-04T10:03:17;5.77;;;5.33;;
60306;SDS011;46155;52.364;6.580;2023-06-04T10:05:48;5.83;;;5.43;;
60306;SDS011;46155;52.364;6.580;2023-06-04T10:08:14;5.73;;;5.37;;
60306;SDS011;46155;52.364;6.580;2023-06-04T10:10:42;6.53;;;5.80;;
60306;SDS011;46155;52.364;6.580;2023-06-04T10:13:27;5.93;;;5.40;;
60306;SDS011;46155;52.364;6.580;2023-06-04T10:15:59;6.23;;;5.93;;
60306;SDS011;46155;52.364;6.580;2023-06-04T10:18:27;6.00;;;5.50;;
60306;SDS011;46155;52.364;6.580;2023-06-04T10:20:54;6.23;;;5.73;;
60306;SDS011;46155;52.364;6.580;2023-06-04T10:23:20;6.47;;;5.23;;
60306;SDS011;46155;52.364;6.580;2023-06-04T10:25:48;6.00;;;5.60;;
60306;SDS011;46155;52.364;6.580;2023-06-04T10:28:15;6.20;;;5.23;;
60306;SDS011;46155;52.364;6.580;2023-06-04T10:30:40;6.60;;;5.97;;
60306;SDS011;46155;52.364;6.580;2023-06-04T10:33:06;6.57;;;6.07;;
60306;SDS011;46155;52.364;6.580;2023-06-04T10:35:35;6.20;;;5.67;;
60306;SDS011;46155;52.364;6.580;2023-06-04T10:38:07;6.07;;;5.67;;
60306;SDS011;46155;52.364;6.580;2023-06-04T10:40:34;6.50;;;5.97;;
60306;SDS011;46155;52.364;6.580;2023-06-04T10:43:09;6.33;;;5.70;;
60306;SDS011;46155;52.364;6.580;2023-06-04T10:45:36;8.40;;;5.83;;
60306;SDS011;46155;52.364;6.580;2023-06-04T10:48:03;6.60;;;6.00;;
60306;SDS011;46155;52.364;6.580;2023-06-04T10:50:31;7.93;;;5.30;;
60306;SDS011;46155;52.364;6.580;2023-06-04T10:53:00;6.33;;;5.63;;
60306;SDS011;46155;52.364;6.580;2023-06-04T10:55:29;6.20;;;5.80;;
60306;SDS011;46155;52.364;6.580;2023-06-04T10:57:56;6.17;;;5.67;;
60306;SDS011;46155;52.364;6.580;2023-06-04T11:00:33;6.07;;;5.27;;
60306;SDS011;46155;52.364;6.580;2023-06-04T11:02:59;5.50;;;5.10;;
60306;SDS011;46155;52.364;6.580;2023-06-04T11:05:45;6.73;;;5.30;;
60306;SDS011;46155;52.364;6.580;2023-06-04T11:08:13;5.83;;;5.37;;
60306;SDS011;46155;52.364;6.580;2023-06-04T11:10:43;6.13;;;5.67;;
60306;SDS011;46155;52.364;6.580;2023-06-04T11:13:09;5.77;;;5.47;;
60306;SDS011;46155;52.364;6.580;2023-06-04T11:15:41;5.77;;;5.37;;
60306;SDS011;46155;52.364;6.580;2023-06-04T11:18:08;6.03;;;5.57;;
60306;SDS011;46155;52.364;6.580;2023-06-04T11:20:38;5.37;;;4.97;;
60306;SDS011;46155;52.364;6.580;2023-06-04T11:23:03;5.57;;;5.17;;
60306;SDS011;46155;52.364;6.580;2023-06-04T11:25:30;5.87;;;5.43;;
60306;SDS011;46155;52.364;6.580;2023-06-04T11:27:57;5.43;;;4.97;;
60306;SDS011;46155;52.364;6.580;2023-06-04T11:30:23;5.47;;;5.07;;
60306;SDS011;46155;52.364;6.580;2023-06-04T11:32:49;5.63;;;5.23;;
60306;SDS011;46155;52.364;6.580;2023-06-04T11:35:15;5.70;;;5.40;;
60306;SDS011;46155;52.364;6.580;2023-06-04T11:37:41;5.97;;;5.57;;
60306;SDS011;46155;52.364;6.580;2023-06-04T11:40:16;5.70;;;5.30;;
60306;SDS011;46155;52.364;6.580;2023-06-04T11:42:43;5.60;;;5.20;;
60306;SDS011;46155;52.364;6.580;2023-06-04T11:45:10;6.20;;;5.80;;
60306;SDS011;46155;52.364;6.580;2023-06-04T11:47:37;5.60;;;5.30;;
60306;SDS011;46155;52.364;6.580;2023-06-04T11:50:02;11.37;;;5.80;;
60306;SDS011;46155;52.364;6.580;2023-06-04T11:52:28;6.40;;;5.90;;
60306;SDS011;46155;52.364;6.580;2023-06-04T11:54:54;6.07;;;5.60;;
60306;SDS011;46155;52.364;6.580;2023-06-04T11:57:19;6.20;;;5.70;;
60306;SDS011;46155;52.364;6.580;2023-06-04T11:59:45;6.03;;;5.70;;
60306;SDS011;46155;52.364;6.580;2023-06-04T12:02:10;9.17;;;6.00;;
60306;SDS011;46155;52.364;6.580;2023-06-04T12:04:36;5.70;;;5.40;;
60306;SDS011;46155;52.364;6.580;2023-06-04T12:07:02;5.93;;;5.53;;
60306;SDS011;46155;52.364;6.580;2023-06-04T12:09:30;6.53;;;5.87;;
60306;SDS011;46155;52.364;6.580;2023-06-04T12:12:00;6.23;;;5.83;;
60306;SDS011;46155;52.364;6.580;2023-06-04T12:14:26;6.50;;;6.10;;
60306;SDS011;46155;52.364;6.580;2023-06-04T12:16:58;6.27;;;5.73;;
60306;SDS011;46155;52.364;6.580;2023-06-04T12:19:25;6.30;;;5.90;;
60306;SDS011;46155;52.364;6.580;2023-06-04T12:22:02;5.97;;;5.47;;
60306;SDS011;46155;52.364;6.580;2023-06-04T12:24:29;6.30;;;5.80;;
60306;SDS011;46155;52.364;6.580;2023-06-04T12:27:02;6.20;;;5.80;;
60306;SDS011;46155;52.364;6.580;2023-06-04T12:29:28;5.70;;;5.23;;
60306;SDS011;46155;52.364;6.580;2023-06-04T12:32:01;6.50;;;6.00;;
60306;SDS011;46155;52.364;6.580;2023-06-04T12:34:32;6.00;;;5.50;;
60306;SDS011;46155;52.364;6.580;2023-06-04T12:36:58;6.20;;;5.70;;
60306;SDS011;46155;52.364;6.580;2023-06-04T12:39:23;8.67;;;5.50;;
60306;SDS011;46155;52.364;6.580;2023-06-04T12:41:48;6.10;;;5.80;;
60306;SDS011;46155;52.364;6.580;2023-06-04T12:44:14;7.57;;;5.77;;
60306;SDS011;46155;52.364;6.580;2023-06-04T12:46:39;7.27;;;5.73;;
60306;SDS011;46155;52.364;6.580;2023-06-04T12:49:05;5.87;;;5.50;;
60306;SDS011;46155;52.364;6.580;2023-06-04T12:51:30;5.73;;;5.43;;
60306;SDS011;46155;52.364;6.580;2023-06-04T12:53:55;6.10;;;5.70;;
60306;SDS011;46155;52.364;6.580;2023-06-04T12:56:21;6.00;;;5.50;;
60306;SDS011;46155;52.364;6.580;2023-06-04T12:58:46;5.77;;;5.37;;
60306;SDS011;46155;52.364;6.580;2023-06-04T13:01:12;7.13;;;6.63;;
60306;SDS011;46155;52.364;6.580;2023-06-04T13:03:39;6.20;;;5.80;;
60306;SDS011;46155;52.364;6.580;2023-06-04T13:06:05;6.47;;;6.00;;
60306;SDS011;46155;52.364;6.580;2023-06-04T13:08:31;6.60;;;6.20;;
60306;SDS011;46155;52.364;6.580;2023-06-04T13:10:57;7.07;;;6.40;;
60306;SDS011;46155;52.364;6.580;2023-06-04T13:13:22;7.93;;;7.13;;
60306;SDS011;46155;52.364;6.580;2023-06-04T13:15:48;8.03;;;7.33;;
60306;SDS011;46155;52.364;6.580;2023-06-04T13:18:13;6.83;;;6.33;;
60306;SDS011;46155;52.364;6.580;2023-06-04T13:20:41;6.50;;;5.87;;
60306;SDS011;46155;52.364;6.580;2023-06-04T13:23:07;5.97;;;5.67;;
60306;SDS011;46155;52.364;6.580;2023-06-04T13:25:33;6.53;;;6.03;;
60306;SDS011;46155;52.364;6.580;2023-06-04T13:27:59;6.77;;;6.17;;
60306;SDS011;46155;52.364;6.580;2023-06-04T13:30:25;6.00;;;5.63;;
60306;SDS011;46155;52.364;6.580;2023-06-04T13:32:52;6.17;;;5.77;;
60306;SDS011;46155;52.364;6.580;2023-06-04T13:35:18;5.90;;;5.50;;
60306;SDS011;46155;52.364;6.580;2023-06-04T13:37:43;6.70;;;6.10;;
60306;SDS011;46155;52.364;6.580;2023-06-04T13:40:08;5.73;;;5.43;;
60306;SDS011;46155;52.364;6.580;2023-06-04T13:42:34;6.40;;;5.90;;
60306;SDS011;46155;52.364;6.580;2023-06-04T13:44:59;6.93;;;6.37;;
60306;SDS011;46155;52.364;6.580;2023-06-04T13:47:25;6.10;;;5.80;;
60306;SDS011;46155;52.364;6.580;2023-06-04T13:49:50;6.70;;;6.00;;
60306;SDS011;46155;52.364;6.580;2023-06-04T13:52:16;6.63;;;6.13;;
60306;SDS011;46155;52.364;6.580;2023-06-04T13:54:42;6.63;;;6.07;;
60306;SDS011;46155;52.364;6.580;2023-06-04T13:57:07;6.23;;;5.83;;
60306;SDS011;46155;52.364;6.580;2023-06-04T13:59:36;6.20;;;5.87;;
60306;SDS011;46155;52.364;6.580;2023-06-04T14:02:02;6.13;;;5.70;;
60306;SDS011;46155;52.364;6.580;2023-06-04T14:04:27;6.83;;;6.27;;
60306;SDS011;46155;52.364;6.580;2023-06-04T14:06:52;6.63;;;6.13;;
60306;SDS011;46155;52.364;6.580;2023-06-04T14:09:18;6.83;;;6.23;;
60306;SDS011;46155;52.364;6.580;2023-06-04T14:11:43;6.70;;;6.10;;
60306;SDS011;46155;52.364;6.580;2023-06-04T14:14:08;6.53;;;5.93;;
60306;SDS011;46155;52.364;6.580;2023-06-04T14:16:35;6.50;;;6.00;;
60306;SDS011;46155;52.364;6.580;2023-06-04T14:19:00;6.00;;;5.70;;
60306;SDS011;46155;52.364;6.580;2023-06-04T14:21:26;7.03;;;5.80;;
60306;SDS011;46155;52.364;6.580;2023-06-04T14:23:52;6.17;;;5.77;;
60306;SDS011;46155;52.364;6.580;2023-06-04T14:26:18;6.20;;;5.80;;
60306;SDS011;46155;52.364;6.580;2023-06-04T14:28:44;6.27;;;5.77;;
60306;SDS011;46155;52.364;6.580;2023-06-04T14:31:09;6.63;;;6.03;;
60306;SDS011;46155;52.364;6.580;2023-06-04T14:33:35;10.03;;;6.33;;
60306;SDS011;46155;52.364;6.580;2023-06-04T14:36:02;6.70;;;6.20;;
60306;SDS011;46155;52.364;6.580;2023-06-04T14:38:28;7.20;;;6.60;;
60306;SDS011;46155;52.364;6.580;2023-06-04T14:40:53;6.43;;;6.00;;
60306;SDS011;46155;52.364;6.580;2023-06-04T14:43:20;7.30;;;6.60;;
60306;SDS011;46155;52.364;6.580;2023-06-04T14:45:46;6.23;;;5.83;;
60306;SDS011;46155;52.364;6.580;2023-06-04T14:48:11;7.10;;;6.30;;
60306;SDS011;46155;52.364;6.580;2023-06-04T14:50:36;6.90;;;6.30;;
60306;SDS011;46155;52.364;6.580;2023-06-04T14:53:02;6.10;;;5.80;;
60306;SDS011;46155;52.364;6.580;2023-06-04T14:55:27;7.17;;;6.57;;
60306;SDS011;46155;52.364;6.580;2023-06-04T14:57:53;6.70;;;5.97;;
60306;SDS011;46155;52.364;6.580;2023-06-04T15:00:18;6.67;;;6.17;;
60306;SDS011;46155;52.364;6.580;2023-06-04T15:02:43;6.33;;;5.77;;
60306;SDS011;46155;52.364;6.580;2023-06-04T15:05:09;7.10;;;5.93;;
60306;SDS011;46155;52.364;6.580;2023-06-04T15:07:35;6.90;;;6.37;;
60306;SDS011;46155;52.364;6.580;2023-06-04T15:10:00;8.30;;;5.90;;
60306;SDS011;46155;52.364;6.580;2023-06-04T15:12:27;7.30;;;6.60;;
60306;SDS011;46155;52.364;6.580;2023-06-04T15:14:53;6.43;;;5.93;;
60306;SDS011;46155;52.364;6.580;2023-06-04T15:17:18;6.27;;;5.87;;
60306;SDS011;46155;52.364;6.580;2023-06-04T15:19:43;7.10;;;6.60;;
60306;SDS011;46155;52.364;6.580;2023-06-04T15:22:09;6.73;;;5.97;;
60306;SDS011;46155;52.364;6.580;2023-06-04T15:24:34;6.33;;;5.83;;
60306;SDS011;46155;52.364;6.580;2023-06-04T15:26:59;6.70;;;6.30;;
60306;SDS011;46155;52.364;6.580;2023-06-04T15:29:24;7.63;;;5.83;;
60306;SDS011;46155;52.364;6.580;2023-06-04T15:31:50;6.63;;;6.13;;
60306;SDS011;46155;52.364;6.580;2023-06-04T15:34:15;6.63;;;6.07;;
60306;SDS011;46155;52.364;6.580;2023-06-04T15:36:40;6.87;;;6.23;;
60306;SDS011;46155;52.364;6.580;2023-06-04T15:39:06;7.10;;;6.50;;
60306;SDS011;46155;52.364;6.580;2023-06-04T15:41:31;7.43;;;6.17;;
60306;SDS011;46155;52.364;6.580;2023-06-04T15:43:57;12.07;;;7.07;;
60306;SDS011;46155;52.364;6.580;2023-06-04T15:46:22;6.67;;;6.10;;
60306;SDS011;46155;52.364;6.580;2023-06-04T15:48:49;6.87;;;6.37;;
60306;SDS011;46155;52.364;6.580;2023-06-04T15:51:14;7.00;;;6.37;;
60306;SDS011;46155;52.364;6.580;2023-06-04T15:53:40;6.80;;;6.30;;
60306;SDS011;46155;52.364;6.580;2023-06-04T15:56:05;6.67;;;6.17;;
60306;SDS011;46155;52.364;6.580;2023-06-04T15:58:30;9.30;;;6.37;;
60306;SDS011;46155;52.364;6.580;2023-06-04T16:00:56;6.83;;;6.33;;
60306;SDS011;46155;52.364;6.580;2023-06-04T16:03:21;6.87;;;6.23;;
60306;SDS011;46155;52.364;6.580;2023-06-04T16:05:46;7.07;;;6.37;;
60306;SDS011;46155;52.364;6.580;2023-06-04T16:08:11;6.70;;;6.10;;
60306;SDS011;46155;52.364;6.580;2023-06-04T16:10:37;6.63;;;6.07;;
60306;SDS011;46155;52.364;6.580;2023-06-04T16:13:02;6.90;;;6.17;;
60306;SDS011;46155;52.364;6.580;2023-06-04T16:15:27;7.70;;;6.20;;
60306;SDS011;46155;52.364;6.580;2023-06-04T16:17:53;8.93;;;6.10;;
60306;SDS011;46155;52.364;6.580;2023-06-04T16:20:19;6.03;;;5.63;;
60306;SDS011;46155;52.364;6.580;2023-06-04T16:22:45;6.43;;;5.80;;
60306;SDS011;46155;52.364;6.580;2023-06-04T16:25:11;6.30;;;5.90;;
60306;SDS011;46155;52.364;6.580;2023-06-04T16:27:42;6.50;;;6.03;;
60306;SDS011;46155;52.364;6.580;2023-06-04T16:30:07;6.43;;;5.90;;
60306;SDS011;46155;52.364;6.580;2023-06-04T16:32:33;6.00;;;5.43;;
60306;SDS011;46155;52.364;6.580;2023-06-04T16:35:01;6.40;;;5.60;;
60306;SDS011;46155;52.364;6.580;2023-06-04T16:37:27;6.20;;;5.70;;
60306;SDS011;46155;52.364;6.580;2023-06-04T16:39:54;6.63;;;6.03;;
60306;SDS011;46155;52.364;6.580;2023-06-04T16:42:19;6.17;;;5.77;;
60306;SDS011;46155;52.364;6.580;2023-06-04T16:44:45;6.33;;;5.73;;
60306;SDS011;46155;52.364;6.580;2023-06-04T16:47:16;6.30;;;5.70;;
60306;SDS011;46155;52.364;6.580;2023-06-04T16:49:41;6.50;;;5.80;;
60306;SDS011;46155;52.364;6.580;2023-06-04T16:52:06;6.23;;;5.63;;
60306;SDS011;46155;52.364;6.580;2023-06-04T16:54:32;6.13;;;5.73;;
60306;SDS011;46155;52.364;6.580;2023-06-04T16:56:57;5.73;;;5.33;;
60306;SDS011;46155;52.364;6.580;2023-06-04T16:59:23;7.87;;;6.20;;
60306;SDS011;46155;52.364;6.580;2023-06-04T17:01:54;6.13;;;5.73;;
60306;SDS011;46155;52.364;6.580;2023-06-04T17:04:20;5.93;;;5.53;;
60306;SDS011;46155;52.364;6.580;2023-06-04T17:06:45;6.57;;;6.00;;
60306;SDS011;46155;52.364;6.580;2023-06-04T17:09:11;6.90;;;6.30;;
60306;SDS011;46155;52.364;6.580;2023-06-04T17:11:36;8.13;;;5.83;;
60306;SDS011;46155;52.364;6.580;2023-06-04T17:14:03;7.83;;;6.00;;
60306;SDS011;46155;52.364;6.580;2023-06-04T17:16:29;6.50;;;5.63;;
60306;SDS011;46155;52.364;6.580;2023-06-04T17:18:57;5.80;;;5.40;;
60306;SDS011;46155;52.364;6.580;2023-06-04T17:21:23;9.50;;;6.00;;
60306;SDS011;46155;52.364;6.580;2023-06-04T17:23:48;6.40;;;5.80;;
60306;SDS011;46155;52.364;6.580;2023-06-04T17:26:14;6.00;;;5.50;;
60306;SDS011;46155;52.364;6.580;2023-06-04T17:28:40;6.63;;;5.67;;
60306;SDS011;46155;52.364;6.580;2023-06-04T17:31:05;8.50;;;5.33;;
60306;SDS011;46155;52.364;6.580;2023-06-04T17:33:31;9.00;;;5.87;;
60306;SDS011;46155;52.364;6.580;2023-06-04T17:35:56;5.63;;;4.97;;
60306;SDS011;46155;52.364;6.580;2023-06-04T17:38:21;5.67;;;5.20;;